createdAt,value
2022-12-28T00:01:57.034Z,98.84
2022-12-28T00:07:16.377Z,99
2022-12-28T00:12:35.434Z,99.11
2022-12-28T00:17:54.939Z,99.18
2022-12-28T00:23:13.887Z,99.25
2022-12-28T00:28:32.828Z,99.52
2022-12-28T00:33:52.307Z,99.74
2022-12-28T00:39:11.720Z,99.81
2022-12-28T00:44:30.736Z,99.01
2022-12-28T00:49:50.441Z,97.66
2022-12-28T00:55:10.060Z,97.04
2022-12-28T01:00:29.071Z,97.36
2022-12-28T01:05:48.777Z,98.54
2022-12-28T01:11:07.986Z,98.09
2022-12-28T01:16:27.745Z,97.91
2022-12-28T01:21:47.374Z,97.52
2022-12-28T01:27:06.869Z,97.63
2022-12-28T01:32:25.812Z,98.77
2022-12-28T01:37:44.758Z,98.29
2022-12-28T01:43:03.235Z,97.88
2022-12-28T01:48:22.541Z,96.23
2022-12-28T01:53:42.232Z,93.45
2022-12-28T01:59:01.525Z,93.8
2022-12-28T02:04:20.376Z,92.02
2022-12-28T02:09:39.385Z,90.55
2022-12-28T02:14:58.239Z,91.19
2022-12-28T02:20:17.683Z,89.72
2022-12-28T02:25:36.858Z,88.48
2022-12-28T02:30:55.682Z,89.96
2022-12-28T02:36:18.222Z,89.66
2022-12-28T02:41:34.215Z,86.61
2022-12-28T02:46:53.792Z,89.41
2022-12-28T02:52:13.194Z,88.62
2022-12-28T02:57:32.026Z,89.22
2022-12-28T03:02:51.149Z,88.56
2022-12-28T03:08:10.733Z,88.1
2022-12-28T03:13:29.831Z,87.34
2022-12-28T03:18:48.969Z,86.59
2022-12-28T03:24:08.712Z,85.87
2022-12-28T03:29:27.896Z,85.31
2022-12-28T03:34:46.918Z,84.61
2022-12-28T03:40:05.748Z,84.02
2022-12-28T03:45:44.620Z,83.48
2022-12-28T03:50:44.239Z,83.73
2022-12-28T03:56:03.963Z,82.69
2022-12-28T04:01:23.075Z,82.91
2022-12-28T04:06:41.877Z,82.22
2022-12-28T04:12:00.586Z,81
2022-12-28T04:17:19.704Z,80.53
2022-12-28T04:22:38.881Z,80.5
2022-12-28T04:27:57.790Z,80.37
2022-12-28T04:33:17.495Z,80.23
2022-12-28T04:38:37.158Z,80.24
2022-12-28T04:43:56.332Z,79.87
2022-12-28T04:49:15.888Z,79.78
2022-12-28T04:54:35.121Z,79.74
2022-12-28T04:59:55.144Z,79.58
2022-12-28T05:05:14.271Z,79.71
2022-12-28T05:10:33.374Z,79.61
2022-12-28T05:15:52.317Z,79.48
2022-12-28T05:21:11.661Z,79.22
2022-12-28T05:26:31.205Z,79.37
2022-12-28T05:31:50.387Z,79.26
2022-12-28T05:37:10.009Z,79.1
2022-12-28T05:42:28.802Z,79.24
2022-12-28T05:47:47.681Z,79.33
2022-12-28T05:53:07.332Z,79.55
2022-12-28T05:58:26.186Z,79.49
2022-12-28T06:03:45.268Z,79.35
2022-12-28T06:09:04.143Z,79.33
2022-12-28T06:14:23.910Z,79.42
2022-12-28T06:19:43.267Z,79.43
2022-12-28T06:25:02.844Z,79.53
2022-12-28T06:30:22.562Z,79.32
2022-12-28T06:35:42.204Z,78.93
2022-12-28T06:41:13.158Z,79.4
2022-12-28T06:46:21.524Z,79.15
2022-12-28T06:51:40.857Z,79.25
2022-12-28T06:57:00.253Z,78.94
2022-12-28T07:02:19.791Z,79.01
2022-12-28T07:07:39.158Z,78.83
2022-12-28T07:12:58.036Z,78.94
2022-12-28T07:18:18.266Z,78.44
2022-12-28T07:23:37.788Z,78.51
2022-12-28T07:28:57.410Z,78.19
2022-12-28T07:34:15.254Z,78.18
2022-12-28T07:39:34.520Z,78.19
2022-12-28T07:44:54.000Z,78.06
2022-12-28T07:50:12.952Z,77.98
2022-12-28T07:55:31.807Z,78.16
2022-12-28T08:00:51.268Z,78.19
2022-12-28T08:06:10.033Z,78.51
2022-12-28T08:11:29.705Z,78.47
2022-12-28T08:16:48.688Z,78.28
2022-12-28T08:22:07.816Z,78.07
2022-12-28T08:27:27.511Z,78.11
2022-12-28T08:32:47.256Z,77.76
2022-12-28T08:38:06.651Z,77.6
2022-12-28T08:43:25.978Z,77.18
2022-12-28T08:48:45.634Z,77.74
2022-12-28T08:54:05.375Z,76.86
2022-12-28T08:59:24.691Z,76.58
2022-12-28T09:04:44.397Z,76.54
2022-12-28T09:10:03.605Z,76.12
2022-12-28T09:15:22.636Z,76.15
2022-12-28T09:20:47.632Z,75.73
2022-12-28T09:26:01.257Z,75.51
2022-12-28T09:31:20.918Z,75.26
2022-12-28T09:36:40.219Z,74.43
2022-12-28T09:42:00.277Z,74.74
2022-12-28T09:47:19.343Z,74.49
2022-12-28T09:52:38.216Z,73.92
2022-12-28T09:57:57.834Z,73.37
2022-12-28T10:03:17.115Z,72.76
2022-12-28T10:08:36.500Z,73.19
2022-12-28T10:13:55.708Z,73.06
2022-12-28T10:19:14.317Z,71.94
2022-12-28T10:24:33.356Z,71.76
2022-12-28T10:29:52.671Z,71.54
2022-12-28T10:35:12.373Z,70.51
2022-12-28T10:40:31.121Z,68.96
2022-12-28T10:45:50.844Z,70.24
2022-12-28T10:51:10.274Z,70.24
2022-12-28T10:56:29.769Z,69.35
2022-12-28T11:01:48.686Z,68.62
2022-12-28T11:07:07.994Z,68.51
2022-12-28T11:12:27.481Z,69.81
2022-12-28T11:17:46.735Z,68.83
2022-12-28T11:23:05.778Z,67.39
2022-12-28T11:28:25.506Z,67.74
2022-12-28T11:33:44.272Z,66.05
2022-12-28T11:39:03.662Z,65.43
2022-12-28T11:44:22.481Z,65.33
2022-12-28T11:49:42.017Z,65.28
2022-12-28T11:55:00.900Z,64.8
2022-12-28T12:00:22.955Z,64.25
2022-12-28T12:06:54.975Z,65.46
2022-12-28T12:10:59.921Z,64.96
2022-12-28T12:16:19.251Z,65.79
2022-12-28T12:21:38.060Z,66.62
2022-12-28T12:26:57.253Z,68.08
2022-12-28T12:32:14.798Z,67.43
2022-12-28T12:37:33.666Z,69.29
2022-12-28T12:42:53.105Z,66.33
2022-12-28T12:48:12.739Z,66.62
2022-12-28T12:53:32.059Z,66.9
2022-12-28T12:58:51.155Z,67.41
2022-12-28T13:04:10.381Z,68.24
2022-12-28T13:09:29.223Z,67.19
2022-12-28T13:14:48.471Z,67.83
2022-12-28T13:20:07.333Z,67.43
2022-12-28T13:25:26.879Z,68.28
2022-12-28T13:30:45.455Z,68.22
2022-12-28T13:36:04.094Z,69.32
2022-12-28T13:41:23.264Z,69.4
2022-12-28T13:46:42.890Z,68.62
2022-12-28T13:52:02.067Z,67
2022-12-28T13:57:45.624Z,67.07
2022-12-28T14:02:40.313Z,68.85
2022-12-28T14:07:59.923Z,68.78
2022-12-28T14:13:19.689Z,68.17
2022-12-28T14:18:39.286Z,69.19
2022-12-28T14:23:58.625Z,69.55
2022-12-28T14:30:32.781Z,68.87
2022-12-28T14:34:54.110Z,68.83
2022-12-28T14:39:22.134Z,69.64
2022-12-28T14:41:50.371Z,69.56
2022-12-28T14:47:09.629Z,69.85
2022-12-28T14:52:29.104Z,70.12
2022-12-28T14:57:48.731Z,69.62
2022-12-28T15:03:07.906Z,69.51
2022-12-28T15:08:27.250Z,69.86
2022-12-28T15:13:46.141Z,70.03
2022-12-28T15:19:04.758Z,70.12
2022-12-28T15:24:27.374Z,70.43
2022-12-28T15:30:06.227Z,70.58
2022-12-28T15:35:02.505Z,70.51
2022-12-28T15:40:22.715Z,70.79
2022-12-28T15:45:42.363Z,70.29
2022-12-28T15:51:01.223Z,70.56
2022-12-28T15:56:19.640Z,71.14
2022-12-28T16:01:38.440Z,71.15
2022-12-28T16:06:57.900Z,70.76
2022-12-28T16:12:17.500Z,71.26
2022-12-28T16:17:41.823Z,71.06
2022-12-28T16:22:56.202Z,71.22
2022-12-28T16:28:15.874Z,71.46
2022-12-28T16:33:34.992Z,71.41
2022-12-28T16:38:54.115Z,72.05
2022-12-28T16:44:13.124Z,72.57
2022-12-28T16:49:32.446Z,72.92
2022-12-28T16:54:51.564Z,73.01
2022-12-28T17:00:11.125Z,72.9
2022-12-28T17:05:39.251Z,73.08
2022-12-28T17:10:49.733Z,73.15
2022-12-28T17:16:08.889Z,72.79
2022-12-28T17:21:28.004Z,72.92
2022-12-28T17:26:47.664Z,73.01
2022-12-28T17:32:06.795Z,72.74
2022-12-28T17:37:25.866Z,72.57
2022-12-28T17:42:44.674Z,72.57
2022-12-28T17:48:04.367Z,72.62
2022-12-28T17:53:23.369Z,72.49
2022-12-28T17:58:42.767Z,72.48
2022-12-28T18:04:02.985Z,72.12
2022-12-28T18:09:27.293Z,72.37
2022-12-28T18:14:41.024Z,72.46
2022-12-28T18:20:00.551Z,72.36
2022-12-28T18:25:19.927Z,72.12
2022-12-28T18:30:39.448Z,72.01
2022-12-28T18:35:59.083Z,71.65
2022-12-28T18:41:17.665Z,71.69
2022-12-28T18:46:37.102Z,70.87
2022-12-28T18:51:55.894Z,71.19
2022-12-28T18:57:14.977Z,71.54
2022-12-28T19:02:34.832Z,71.55
2022-12-28T19:07:53.555Z,71.26
2022-12-28T19:13:12.568Z,70.6
2022-12-28T19:18:31.357Z,70.79
2022-12-28T19:23:50.507Z,70.4
2022-12-28T19:29:09.941Z,69.86
2022-12-28T19:34:29.057Z,69.44
2022-12-28T19:39:50.250Z,69.31
2022-12-28T19:45:09.946Z,68.83
2022-12-28T19:50:27.504Z,68.94
2022-12-28T19:55:46.428Z,68.29
2022-12-28T20:01:05.152Z,68.69
2022-12-28T20:06:24.695Z,68.36
2022-12-28T20:11:43.978Z,68.64
2022-12-28T20:17:03.004Z,68.48
2022-12-28T20:22:22.093Z,68.39
2022-12-28T20:27:40.983Z,68.57
2022-12-28T20:32:59.823Z,68.89
2022-12-28T20:38:18.632Z,68.79
2022-12-28T20:43:37.926Z,68.89
2022-12-28T20:48:57.031Z,68.94
2022-12-28T20:54:16.661Z,68.81
2022-12-28T20:59:35.658Z,68.1
2022-12-28T21:04:55.054Z,68.19
2022-12-28T21:10:15.139Z,68.39
2022-12-28T21:15:34.141Z,68.3
2022-12-28T21:20:52.726Z,68.54
2022-12-28T21:26:12.285Z,68.3
2022-12-28T21:31:32.122Z,68.47
2022-12-28T21:36:51.392Z,68.03
2022-12-28T21:42:10.488Z,67.66
2022-12-28T21:47:29.737Z,67.14
2022-12-28T21:52:49.009Z,67.26
2022-12-28T21:58:08.329Z,67.33
2022-12-28T22:03:27.609Z,67.44
2022-12-28T22:08:47.109Z,67.39
2022-12-28T22:14:06.070Z,67.19
2022-12-28T22:19:25.688Z,66.61
2022-12-28T22:24:45.401Z,67.12
2022-12-28T22:30:04.968Z,67.19
2022-12-28T22:35:23.854Z,67.15
2022-12-28T22:40:42.713Z,66.99
2022-12-28T22:46:01.850Z,67.24
2022-12-28T22:51:21.222Z,66.83
2022-12-28T22:56:40.361Z,67.37
2022-12-28T23:01:59.471Z,67.24
2022-12-28T23:07:18.543Z,66.94
2022-12-28T23:12:37.318Z,66.97
2022-12-28T23:17:55.843Z,67.31
2022-12-28T23:23:15.296Z,66.69
2022-12-28T23:28:34.807Z,66.96
2022-12-28T23:33:54.113Z,67.43
2022-12-28T23:39:13.389Z,67.43
2022-12-28T23:44:32.247Z,67.55
2022-12-28T23:49:51.929Z,67.24
2022-12-28T23:55:11.565Z,67.5
